Time;durP1;ratioP1;P1;durP2;ratioP2;P2;SDS_P1;SDS_P2;PMS_P1;PMS_P2;Temp;Humidity;BMP_temperature;BMP_pressure;BME280_temperature;BME280_humidity;BME280_pressure;Samples;Min_cycle;Max_cycle;Signal;HPM_P1;HPM_P2
2021/12/23 00:00:06;;;;;;;28.80;18.50;;;2.20;93.90;;;;;;5113535;28;20469;-66
2021/12/23 00:02:34;;;;;;;26.27;18.77;;;2.20;93.70;;;;;;5113586;28;20459;-66
2021/12/23 00:05:01;;;;;;;24.10;18.23;;;2.20;93.40;;;;;;5113941;28;20568;-66
2021/12/23 00:07:28;;;;;;;26.70;18.33;;;2.10;93.30;;;;;;5114397;28;20818;-67
2021/12/23 00:10:06;;;;;;;25.43;18.20;;;2.10;93.60;;;;;;5113906;28;20451;-67
2021/12/23 00:12:34;;;;;;;24.40;18.60;;;2.10;93.70;;;;;;5113837;28;20462;-67
2021/12/23 00:15:02;;;;;;;25.53;17.60;;;2.10;93.40;;;;;;5113792;28;20507;-67
2021/12/23 00:17:53;;;;;;;28.10;18.40;;;2.10;93.50;;;;;;5113837;28;20427;-67
2021/12/23 00:25:47;;;;;;;27.17;18.43;;;2.00;93.90;;;;;;5113812;28;20395;-67
2021/12/23 00:28:14;;;;;;;24.33;17.17;;;2.00;94.00;;;;;;5113739;28;20449;-67
2021/12/23 00:30:40;;;;;;;23.30;17.87;;;2.00;94.10;;;;;;5113470;28;20435;-67
2021/12/23 00:33:07;;;;;;;28.13;19.03;;;2.00;94.10;;;;;;5113609;28;20468;-67
2021/12/23 00:35:35;;;;;;;26.60;18.60;;;2.00;94.00;;;;;;5113601;28;20475;-67
2021/12/23 00:38:10;;;;;;;28.57;20.10;;;2.00;94.00;;;;;;5113254;28;20422;-67
2021/12/23 00:40:36;;;;;;;29.83;19.57;;;2.10;94.00;;;;;;5114198;28;20526;-67
2021/12/23 00:43:03;;;;;;;28.77;20.07;;;2.00;93.90;;;;;;5113496;28;20474;-67
2021/12/23 00:45:30;;;;;;;28.40;20.77;;;2.00;93.70;;;;;;5113622;28;20441;-67
2021/12/23 00:47:57;;;;;;;24.37;18.50;;;2.00;93.80;;;;;;5113559;28;20449;-67
2021/12/23 00:50:23;;;;;;;26.90;20.00;;;1.90;93.90;;;;;;5113581;28;20438;-67
2021/12/23 00:52:56;;;;;;;26.90;19.47;;;2.00;94.00;;;;;;5113444;28;20473;-67
2021/12/23 00:55:22;;;;;;;25.20;18.20;;;2.00;94.00;;;;;;5117381;28;20423;-67
2021/12/23 00:57:49;;;;;;;27.40;19.70;;;2.00;93.90;;;;;;5117358;28;20445;-67
2021/12/23 01:00:19;;;;;;;31.83;19.30;;;2.00;93.80;;;;;;5117102;28;20455;-68
2021/12/23 01:02:47;;;;;;;25.60;18.80;;;2.00;93.70;;;;;;5117189;28;20478;-67
2021/12/23 01:05:15;;;;;;;27.17;19.10;;;2.00;93.30;;;;;;5116787;28;20843;-67
2021/12/23 01:07:43;;;;;;;25.60;18.33;;;2.00;93.30;;;;;;5116852;28;20932;-67
2021/12/23 01:10:11;;;;;;;28.70;20.00;;;2.00;93.40;;;;;;5117009;28;20469;-67
2021/12/23 01:12:44;;;;;;;28.33;18.63;;;2.00;93.70;;;;;;5117059;28;20467;-67
2021/12/23 01:15:15;;;;;;;24.77;17.00;;;1.90;93.70;;;;;;5117046;28;20506;-67
2021/12/23 01:17:56;;;;;;;27.80;19.60;;;1.90;93.90;;;;;;5116928;28;20422;-67
2021/12/23 01:20:29;;;;;;;27.93;19.00;;;1.90;94.00;;;;;;5116929;28;20430;-67
2021/12/23 01:22:56;;;;;;;25.10;18.30;;;1.90;94.20;;;;;;5116905;28;20512;-67
2021/12/23 01:25:25;;;;;;;27.67;20.03;;;1.90;94.20;;;;;;5116890;28;20500;-67
2021/12/23 01:27:53;;;;;;;29.07;19.60;;;2.00;93.90;;;;;;5116485;28;20947;-67
2021/12/23 01:30:20;;;;;;;27.77;19.60;;;2.00;93.90;;;;;;5116790;28;20446;-67
2021/12/23 01:32:49;;;;;;;30.90;18.77;;;2.00;93.90;;;;;;5116582;28;20459;-67
2021/12/23 01:35:18;;;;;;;26.17;18.40;;;2.00;93.50;;;;;;5116550;28;20446;-67
2021/12/23 01:37:45;;;;;;;26.60;18.90;;;2.00;93.50;;;;;;5116250;28;20474;-67
2021/12/23 01:40:13;;;;;;;23.90;17.20;;;2.00;93.50;;;;;;5116589;28;20803;-67
2021/12/23 01:42:42;;;;;;;25.50;18.80;;;2.00;93.50;;;;;;5116095;28;20976;-67
2021/12/23 01:45:10;;;;;;;25.50;17.83;;;2.00;93.30;;;;;;5116463;28;20469;-67
2021/12/23 01:47:37;;;;;;;26.80;19.77;;;2.00;93.50;;;;;;5116410;28;20438;-68
2021/12/23 01:50:05;;;;;;;28.43;19.10;;;1.90;93.60;;;;;;5116130;28;20435;-68
2021/12/23 01:52:31;;;;;;;27.63;18.37;;;2.00;93.80;;;;;;5115908;28;20443;-68
2021/12/23 01:54:58;;;;;;;26.53;18.83;;;2.00;93.70;;;;;;5116040;28;20455;-68
2021/12/23 01:57:27;;;;;;;28.27;20.23;;;2.00;93.20;;;;;;5116547;28;20486;-68
2021/12/23 01:59:55;;;;;;;25.80;19.57;;;1.90;93.20;;;;;;5116300;28;20455;-68
2021/12/23 02:02:22;;;;;;;28.93;18.93;;;1.90;93.40;;;;;;5116517;28;20443;-68
2021/12/23 02:04:49;;;;;;;28.87;19.53;;;1.80;93.40;;;;;;5115822;28;20465;-68
2021/12/23 02:07:17;;;;;;;27.40;20.37;;;1.80;93.50;;;;;;5116012;28;20454;-68
2021/12/23 02:09:44;;;;;;;25.07;17.87;;;1.80;93.80;;;;;;5115976;28;20530;-68
2021/12/23 02:12:11;;;;;;;28.10;18.17;;;1.80;94.10;;;;;;5115825;28;20450;-68
2021/12/23 02:14:37;;;;;;;25.50;19.17;;;1.80;94.10;;;;;;5115966;28;20490;-67
2021/12/23 02:17:06;;;;;;;25.33;19.00;;;1.80;94.30;;;;;;5115687;28;20479;-67
2021/12/23 02:19:33;;;;;;;29.37;19.50;;;1.80;94.40;;;;;;5115825;28;20439;-67
2021/12/23 02:22:01;;;;;;;25.97;18.87;;;1.90;94.40;;;;;;5115715;28;20451;-67
2021/12/23 02:24:28;;;;;;;29.50;20.80;;;1.90;94.10;;;;;;5115578;28;20463;-67
2021/12/23 02:26:54;;;;;;;27.20;19.43;;;2.00;93.90;;;;;;5116133;28;20451;-67
2021/12/23 02:29:21;;;;;;;29.50;19.20;;;2.00;93.10;;;;;;5115656;28;20445;-67
2021/12/23 02:31:49;;;;;;;29.07;20.23;;;1.90;93.40;;;;;;5115550;28;20437;-67
2021/12/23 02:34:16;;;;;;;32.23;20.77;;;1.90;93.90;;;;;;5115400;28;20466;-67
2021/12/23 02:36:43;;;;;;;25.83;19.97;;;1.90;93.40;;;;;;5115411;27;20486;-67
2021/12/23 02:39:11;;;;;;;29.27;21.90;;;1.90;93.30;;;;;;5115363;27;20446;-68
2021/12/23 02:41:41;;;;;;;29.27;19.17;;;1.90;93.70;;;;;;5115040;28;20914;-68
2021/12/23 02:44:08;;;;;;;27.20;19.13;;;1.90;94.00;;;;;;5115208;28;20466;-68
2021/12/23 02:46:35;;;;;;;27.23;19.20;;;1.90;94.10;;;;;;5115301;28;20453;-68
2021/12/23 02:49:03;;;;;;;23.60;19.30;;;2.00;94.10;;;;;;5115219;28;20468;-68
2021/12/23 02:51:30;;;;;;;27.47;18.60;;;2.00;94.10;;;;;;5115137;28;20457;-68
2021/12/23 02:53:57;;;;;;;27.63;20.57;;;2.00;94.00;;;;;;5115822;28;20481;-67
2021/12/23 02:56:25;;;;;;;27.80;19.87;;;2.10;94.10;;;;;;5114739;28;20462;-68
2021/12/23 02:58:52;;;;;;;27.80;20.10;;;2.10;94.10;;;;;;5114838;28;20569;-68
2021/12/23 03:01:20;;;;;;;28.90;19.40;;;2.10;94.10;;;;;;5114715;28;20450;-68
2021/12/23 03:03:47;;;;;;;28.97;19.77;;;2.10;94.10;;;;;;5114876;28;20471;-68
2021/12/23 03:06:18;;;;;;;28.87;19.50;;;2.10;94.00;;;;;;5114847;28;20443;-68
2021/12/23 03:08:48;;;;;;;27.10;19.60;;;2.20;94.10;;;;;;5114964;28;20429;-68
2021/12/23 03:11:17;;;;;;;26.37;19.00;;;2.20;94.10;;;;;;5114538;28;20438;-68
2021/12/23 03:13:46;;;;;;;29.30;20.27;;;2.20;94.10;;;;;;5114590;28;20467;-68
2021/12/23 03:16:14;;;;;;;26.50;19.30;;;2.20;94.00;;;;;;5113967;28;20444;-68
2021/12/23 03:18:41;;;;;;;26.47;19.30;;;2.20;93.90;;;;;;5114665;28;20450;-68
2021/12/23 03:21:08;;;;;;;23.57;18.10;;;2.30;93.90;;;;;;5114583;28;20439;-68
2021/12/23 03:23:36;;;;;;;28.53;19.97;;;2.30;93.90;;;;;;5114495;28;20843;-68
2021/12/23 03:26:03;;;;;;;27.90;19.10;;;2.30;93.70;;;;;;5114531;28;20455;-68
2021/12/23 03:28:31;;;;;;;27.00;19.30;;;2.30;93.60;;;;;;5114554;28;20803;-68
2021/12/23 03:30:59;;;;;;;31.27;20.10;;;2.30;93.60;;;;;;5114525;28;20472;-68
2021/12/23 03:33:26;;;;;;;31.07;20.70;;;2.20;93.50;;;;;;5114356;28;20451;-67
2021/12/23 03:35:53;;;;;;;26.77;21.00;;;2.30;93.60;;;;;;5114382;28;20450;-67
2021/12/23 03:38:20;;;;;;;31.23;20.47;;;2.30;93.70;;;;;;5114641;28;20529;-68
2021/12/23 03:40:48;;;;;;;30.10;20.77;;;2.20;93.50;;;;;;5115694;28;20963;-68
2021/12/23 03:43:16;;;;;;;27.43;20.17;;;2.20;93.60;;;;;;5114203;28;20842;-68
2021/12/23 03:45:44;;;;;;;26.97;19.87;;;2.20;93.60;;;;;;5114243;28;20443;-68
2021/12/23 03:48:12;;;;;;;30.57;20.87;;;2.20;93.70;;;;;;5113954;28;20812;-68
2021/12/23 03:50:39;;;;;;;30.63;20.73;;;2.20;93.60;;;;;;5114262;28;20446;-68
2021/12/23 03:53:06;;;;;;;33.23;19.50;;;2.20;93.60;;;;;;5114122;28;20463;-68
2021/12/23 03:55:33;;;;;;;31.20;21.47;;;2.20;93.50;;;;;;5113833;28;20443;-68
2021/12/23 03:57:59;;;;;;;30.07;20.40;;;2.20;93.50;;;;;;5114063;28;20478;-68
2021/12/23 04:00:26;;;;;;;27.00;19.90;;;2.10;93.60;;;;;;5114012;28;20442;-68
2021/12/23 04:02:54;;;;;;;31.30;21.43;;;2.10;93.70;;;;;;5114007;28;20481;-67
2021/12/23 04:05:23;;;;;;;27.63;20.50;;;2.10;93.80;;;;;;5113687;28;20811;-67
2021/12/23 04:07:50;;;;;;;30.37;20.77;;;2.10;94.00;;;;;;5113939;28;20442;-67
2021/12/23 04:10:21;;;;;;;31.67;21.20;;;2.10;94.00;;;;;;5113949;28;20439;-67
2021/12/23 04:12:48;;;;;;;27.20;21.00;;;2.20;94.00;;;;;;5113559;28;20971;-67
2021/12/23 04:15:15;;;;;;;30.80;20.40;;;2.20;94.00;;;;;;5113904;28;20453;-67
2021/12/23 04:17:43;;;;;;;28.10;21.60;;;2.20;94.00;;;;;;5113813;28;20480;-67
2021/12/23 04:20:16;;;;;;;25.87;19.60;;;2.20;94.00;;;;;;5113868;28;20454;-68
2021/12/23 04:22:45;;;;;;;25.60;19.53;;;2.20;94.00;;;;;;5113844;28;20467;-68
2021/12/23 04:25:13;;;;;;;27.13;18.83;;;2.20;94.00;;;;;;5113805;28;20452;-68
2021/12/23 04:27:40;;;;;;;29.53;21.23;;;2.20;94.00;;;;;;5115135;28;20442;-68
2021/12/23 04:30:10;;;;;;;33.33;20.50;;;2.20;94.00;;;;;;5117889;28;20442;-68
2021/12/23 04:32:36;;;;;;;28.80;20.33;;;2.20;94.00;;;;;;5117790;28;20551;-67
2021/12/23 04:35:04;;;;;;;27.07;20.33;;;2.20;94.00;;;;;;5117536;28;20780;-67
2021/12/23 04:37:31;;;;;;;33.63;20.90;;;2.20;94.00;;;;;;5117698;28;20477;-67
2021/12/23 04:39:59;;;;;;;30.27;22.20;;;2.20;94.00;;;;;;5117874;28;20453;-67
2021/12/23 04:42:25;;;;;;;28.97;20.70;;;2.20;94.00;;;;;;5117602;28;20437;-67
2021/12/23 04:44:53;;;;;;;30.97;22.10;;;2.20;93.90;;;;;;5117620;27;20450;-67
2021/12/23 04:47:19;;;;;;;28.40;19.47;;;2.10;94.00;;;;;;5117678;28;20430;-68
2021/12/23 04:49:46;;;;;;;24.53;20.53;;;2.10;94.10;;;;;;5117734;28;20453;-68
2021/12/23 04:52:13;;;;;;;29.20;19.70;;;2.10;94.10;;;;;;5117514;28;20804;-68
2021/12/23 04:54:40;;;;;;;28.20;20.03;;;2.10;94.00;;;;;;5117224;28;20449;-68
2021/12/23 04:57:08;;;;;;;29.13;21.33;;;2.10;94.00;;;;;;5117544;28;20481;-68
2021/12/23 04:59:35;;;;;;;28.90;21.40;;;2.10;94.00;;;;;;5117154;28;20455;-68
2021/12/23 05:02:02;;;;;;;30.90;19.90;;;2.10;94.00;;;;;;5117535;28;20454;-68
2021/12/23 05:04:28;;;;;;;30.37;20.00;;;2.10;94.00;;;;;;5117253;28;20540;-67
2021/12/23 05:06:55;;;;;;;29.70;20.10;;;2.10;94.00;;;;;;5116914;28;20444;-68
2021/12/23 05:09:22;;;;;;;32.50;21.20;;;2.00;94.10;;;;;;5117180;28;20521;-68
2021/12/23 05:11:49;;;;;;;27.00;19.90;;;2.10;94.10;;;;;;5116933;28;20450;-68
2021/12/23 05:14:17;;;;;;;30.20;20.50;;;2.00;94.20;;;;;;5116454;28;20469;-67
2021/12/23 05:16:43;;;;;;;30.47;21.50;;;2.10;94.30;;;;;;5116687;28;20458;-67
2021/12/23 05:19:11;;;;;;;32.43;20.77;;;2.00;94.20;;;;;;5117401;28;20448;-67
2021/12/23 05:21:37;;;;;;;28.10;20.83;;;2.00;94.20;;;;;;5116704;28;20876;-67
2021/12/23 05:24:05;;;;;;;29.67;19.27;;;2.00;94.30;;;;;;5116638;28;20465;-67
2021/12/23 05:26:31;;;;;;;27.60;20.13;;;2.00;94.40;;;;;;5116567;28;20508;-67
2021/12/23 05:28:58;;;;;;;31.33;20.63;;;2.00;94.30;;;;;;5116633;28;20473;-67
2021/12/23 05:31:26;;;;;;;29.67;21.83;;;2.00;94.30;;;;;;5116252;28;20449;-67
2021/12/23 05:33:54;;;;;;;29.03;20.20;;;2.00;94.30;;;;;;5116527;28;20490;-68
2021/12/23 05:36:20;;;;;;;29.30;20.80;;;1.90;94.40;;;;;;5116544;28;20544;-68
2021/12/23 05:38:47;;;;;;;33.47;23.33;;;1.90;94.60;;;;;;5115517;28;20994;-68
2021/12/23 05:41:14;;;;;;;31.47;22.33;;;1.90;94.70;;;;;;5116231;28;20455;-67
2021/12/23 05:43:40;;;;;;;30.13;20.63;;;1.90;94.90;;;;;;5115894;28;20463;-67
2021/12/23 05:46:07;;;;;;;36.90;23.57;;;1.90;95.10;;;;;;5116440;28;20445;-67
2021/12/23 05:48:36;;;;;;;28.70;20.20;;;1.90;95.10;;;;;;5116576;28;20487;-68
2021/12/23 05:51:02;;;;;;;31.50;21.63;;;1.90;95.10;;;;;;5116409;28;20439;-68
2021/12/23 05:53:29;;;;;;;30.63;21.10;;;1.90;95.00;;;;;;5116298;28;20477;-68
2021/12/23 05:55:56;;;;;;;29.07;22.00;;;2.00;95.10;;;;;;5116292;28;20499;-68
2021/12/23 05:58:23;;;;;;;35.17;23.20;;;2.00;95.10;;;;;;5115702;28;21003;-68
2021/12/23 06:00:53;;;;;;;32.47;23.00;;;2.00;95.10;;;;;;5116167;28;20431;-68
2021/12/23 06:03:20;;;;;;;32.07;22.10;;;2.10;95.10;;;;;;5116009;28;20973;-67
2021/12/23 06:05:48;;;;;;;32.97;22.47;;;2.10;95.10;;;;;;5116136;28;20453;-67
2021/12/23 06:08:14;;;;;;;29.50;20.77;;;2.00;94.90;;;;;;5115725;28;20442;-67
2021/12/23 06:10:41;;;;;;;33.90;21.87;;;2.00;94.90;;;;;;5116504;28;20447;-66
2021/12/23 06:13:08;;;;;;;27.60;20.30;;;2.00;95.10;;;;;;5116521;28;20467;-66
2021/12/23 06:15:35;;;;;;;31.27;22.03;;;2.00;95.20;;;;;;5116739;28;20824;-66
2021/12/23 06:18:01;;;;;;;33.23;21.63;;;2.10;95.30;;;;;;5115412;28;20859;-66
2021/12/23 06:20:28;;;;;;;31.93;23.53;;;2.10;95.30;;;;;;5115367;28;20447;-66
2021/12/23 06:22:56;;;;;;;33.97;22.67;;;2.10;95.40;;;;;;5115664;28;20463;-66
2021/12/23 06:25:23;;;;;;;33.67;22.07;;;2.10;95.30;;;;;;5115693;28;20807;-66
2021/12/23 06:27:50;;;;;;;32.73;22.40;;;2.20;95.40;;;;;;5115335;27;20450;-66
2021/12/23 06:30:19;;;;;;;30.57;21.90;;;2.20;95.40;;;;;;5115802;28;20458;-66
2021/12/23 06:32:46;;;;;;;32.60;21.97;;;2.20;95.40;;;;;;5115368;28;20470;-66
2021/12/23 06:35:14;;;;;;;28.30;20.60;;;2.20;95.30;;;;;;5115372;28;20443;-66
2021/12/23 06:37:41;;;;;;;32.70;22.23;;;2.20;95.30;;;;;;5115674;27;20473;-66
2021/12/23 06:40:10;;;;;;;31.20;22.47;;;2.20;95.30;;;;;;5115410;28;20454;-66
2021/12/23 06:42:37;;;;;;;28.50;21.73;;;2.20;95.30;;;;;;5115797;28;20461;-66
2021/12/23 06:45:06;;;;;;;34.77;23.27;;;2.20;95.10;;;;;;5116949;28;20801;-65
2021/12/23 06:47:33;;;;;;;29.17;21.63;;;2.30;95.20;;;;;;5115535;28;20435;-65
2021/12/23 06:49:59;;;;;;;35.70;21.90;;;2.30;95.20;;;;;;5115402;28;20443;-65
2021/12/23 06:52:26;;;;;;;32.43;21.97;;;2.30;95.20;;;;;;5113963;28;20453;-66
2021/12/23 06:54:55;;;;;;;34.23;22.40;;;2.30;95.20;;;;;;5115168;28;20446;-66
2021/12/23 06:57:25;;;;;;;34.77;23.60;;;2.30;95.20;;;;;;5114972;28;20535;-66
2021/12/23 06:59:51;;;;;;;33.60;22.03;;;2.30;95.10;;;;;;5114698;28;20455;-66
2021/12/23 07:02:18;;;;;;;33.93;21.37;;;2.30;95.10;;;;;;5114948;28;20651;-66
2021/12/23 07:04:45;;;;;;;33.40;23.77;;;2.30;95.20;;;;;;5114693;28;20935;-66
2021/12/23 07:07:24;;;;;;;31.97;22.13;;;2.30;95.20;;;;;;5114951;28;20450;-66
2021/12/23 07:09:51;;;;;;;28.93;21.43;;;2.30;95.20;;;;;;5115071;28;20772;-65
2021/12/23 07:12:18;;;;;;;34.73;21.57;;;2.40;95.30;;;;;;5114950;28;20443;-66
2021/12/23 07:14:46;;;;;;;37.13;23.50;;;2.40;95.20;;;;;;5114533;28;20446;-66
2021/12/23 07:17:12;;;;;;;34.43;23.57;;;2.40;95.20;;;;;;5114324;28;20451;-66
2021/12/23 07:19:40;;;;;;;32.23;22.67;;;2.40;95.20;;;;;;5114584;28;20447;-66
2021/12/23 07:22:06;;;;;;;32.73;22.30;;;2.40;95.20;;;;;;5114637;28;20435;-66
2021/12/23 07:24:34;;;;;;;33.73;22.57;;;2.40;95.20;;;;;;5114184;28;20874;-66
2021/12/23 07:27:01;;;;;;;31.37;22.13;;;2.30;95.10;;;;;;5114484;28;20483;-66
2021/12/23 07:29:27;;;;;;;36.30;23.37;;;2.30;95.20;;;;;;5114236;28;20973;-66
2021/12/23 07:31:55;;;;;;;32.53;22.20;;;2.30;95.30;;;;;;5114436;28;20449;-66
2021/12/23 07:34:22;;;;;;;33.00;21.67;;;2.30;95.40;;;;;;5114284;28;20466;-66
2021/12/23 07:36:49;;;;;;;30.57;20.40;;;2.30;95.30;;;;;;5114320;28;20454;-65
2021/12/23 07:39:16;;;;;;;32.47;21.37;;;2.30;95.40;;;;;;5114242;28;20488;-65
2021/12/23 07:41:42;;;;;;;33.67;23.60;;;2.30;95.40;;;;;;5114324;28;20469;-65
2021/12/23 07:44:19;;;;;;;30.53;21.10;;;2.40;95.50;;;;;;5114189;27;20826;-66
2021/12/23 07:46:46;;;;;;;31.90;23.23;;;2.40;95.40;;;;;;5114254;28;20435;-66
2021/12/23 07:49:15;;;;;;;32.17;22.60;;;2.40;95.50;;;;;;5114224;28;20427;-66
2021/12/23 07:51:41;;;;;;;33.90;22.90;;;2.40;95.40;;;;;;5114142;28;20454;-66
2021/12/23 07:54:08;;;;;;;32.03;22.20;;;2.40;95.50;;;;;;5114031;28;20466;-66
2021/12/23 07:56:35;;;;;;;28.80;21.80;;;2.40;95.50;;;;;;5113784;28;20446;-66
2021/12/23 07:59:02;;;;;;;31.13;21.37;;;2.40;95.50;;;;;;5113749;28;20486;-67
2021/12/23 08:01:29;;;;;;;36.63;23.70;;;2.50;95.50;;;;;;5114077;28;20439;-66
2021/12/23 08:03:56;;;;;;;31.10;21.23;;;2.50;95.60;;;;;;5113762;28;20849;-66
2021/12/23 08:06:25;;;;;;;34.00;23.77;;;2.50;95.40;;;;;;5114064;28;20454;-66
2021/12/23 08:08:51;;;;;;;32.00;22.60;;;2.50;95.50;;;;;;5113739;28;20809;-66
2021/12/23 08:11:18;;;;;;;31.23;22.70;;;2.60;95.40;;;;;;5114001;28;20427;-66
2021/12/23 08:13:45;;;;;;;31.00;20.83;;;2.60;95.40;;;;;;5113830;28;20462;-66
2021/12/23 08:16:11;;;;;;;32.13;23.23;;;2.60;95.50;;;;;;5114673;28;20807;-66
2021/12/23 08:18:38;;;;;;;36.17;24.43;;;2.60;95.60;;;;;;5113806;28;20482;-66
2021/12/23 08:21:05;;;;;;;31.40;22.27;;;2.60;95.60;;;;;;5113795;28;20452;-66
2021/12/23 08:23:33;;;;;;;36.70;23.83;;;2.70;95.60;;;;;;5113721;28;20466;-66
2021/12/23 08:26:03;;;;;;;37.20;23.17;;;2.70;95.60;;;;;;5113747;28;20439;-66
2021/12/23 08:28:30;;;;;;;34.07;23.77;;;2.70;95.50;;;;;;5113845;28;20466;-66
2021/12/23 08:30:58;;;;;;;33.37;23.33;;;2.70;95.40;;;;;;5113790;28;20458;-66
2021/12/23 08:33:25;;;;;;;36.37;22.50;;;2.80;95.50;;;;;;5113687;28;20561;-65
2021/12/23 08:35:52;;;;;;;37.20;23.33;;;2.80;95.40;;;;;;5113470;28;20916;-65
2021/12/23 08:38:19;;;;;;;35.50;24.43;;;2.80;95.20;;;;;;5113350;28;20830;-65
2021/12/23 08:40:47;;;;;;;36.47;24.67;;;2.80;95.30;;;;;;5113686;28;20447;-65
2021/12/23 08:43:14;;;;;;;34.87;23.97;;;2.90;95.30;;;;;;5113554;28;20463;-65
2021/12/23 08:45:41;;;;;;;31.80;22.20;;;2.90;95.30;;;;;;5113666;28;20793;-65
2021/12/23 08:48:08;;;;;;;31.23;22.63;;;3.00;95.20;;;;;;5113606;28;20443;-65
2021/12/23 08:50:36;;;;;;;39.00;23.87;;;3.00;95.10;;;;;;5113628;28;20450;-65
2021/12/23 08:53:03;;;;;;;33.60;23.27;;;3.00;95.00;;;;;;5113490;28;20951;-65
2021/12/23 08:55:31;;;;;;;34.73;23.40;;;3.00;95.10;;;;;;5113432;28;20538;-65
2021/12/23 08:58:03;;;;;;;32.13;23.40;;;3.00;95.10;;;;;;5113333;28;20443;-65
2021/12/23 09:00:31;;;;;;;38.23;24.47;;;3.10;95.10;;;;;;5113445;28;20432;-65
2021/12/23 09:02:58;;;;;;;32.10;22.20;;;3.10;94.90;;;;;;5113370;28;20463;-65
2021/12/23 09:05:25;;;;;;;32.23;23.60;;;3.20;94.90;;;;;;5113319;28;20447;-65
2021/12/23 09:07:52;;;;;;;36.17;24.20;;;3.20;94.90;;;;;;5113376;28;20431;-65
2021/12/23 09:10:20;;;;;;;28.70;22.10;;;3.30;94.90;;;;;;5113100;28;20431;-65
2021/12/23 09:12:47;;;;;;;30.73;22.00;;;3.30;94.80;;;;;;5113234;28;20463;-65
2021/12/23 09:15:16;;;;;;;27.40;20.93;;;3.30;94.70;;;;;;5115277;28;20450;-65
2021/12/23 09:17:43;;;;;;;33.77;23.73;;;3.40;94.60;;;;;;5116692;27;20905;-65
2021/12/23 09:20:12;;;;;;;33.73;22.93;;;3.40;94.60;;;;;;5116954;28;20895;-65
2021/12/23 09:22:39;;;;;;;32.50;23.43;;;3.50;94.60;;;;;;5116913;28;20867;-65
2021/12/23 09:25:12;;;;;;;32.37;22.33;;;3.50;94.50;;;;;;5116900;28;20898;-65
2021/12/23 09:27:51;;;;;;;33.47;23.83;;;3.60;94.40;;;;;;5116900;27;20431;-65
2021/12/23 09:33:04;;;;;;;33.33;22.20;;;3.70;94.10;;;;;;5116880;28;20445;-65
2021/12/23 09:35:32;;;;;;;33.47;21.90;;;3.80;93.90;;;;;;5116661;28;20451;-65
2021/12/23 09:38:01;;;;;;;29.47;21.37;;;3.90;93.80;;;;;;5116254;28;20438;-65
2021/12/23 09:40:29;;;;;;;32.20;21.93;;;3.90;93.70;;;;;;5116614;28;20443;-65
2021/12/23 09:43:00;;;;;;;31.17;22.47;;;4.00;93.60;;;;;;5116380;28;20501;-65
2021/12/23 09:45:29;;;;;;;29.70;21.80;;;4.10;93.50;;;;;;5116493;28;20435;-65
2021/12/23 09:47:57;;;;;;;35.50;23.40;;;4.10;93.40;;;;;;5116157;28;20900;-66
2021/12/23 09:50:26;;;;;;;36.20;23.30;;;4.10;93.30;;;;;;5116389;28;20457;-66
2021/12/23 09:52:54;;;;;;;36.90;23.53;;;4.20;93.10;;;;;;5115956;28;20994;-66
2021/12/23 09:55:24;;;;;;;31.87;22.73;;;4.30;93.00;;;;;;5116313;28;20439;-66
2021/12/23 09:57:53;;;;;;;31.80;23.60;;;4.40;93.00;;;;;;5115858;28;20948;-66
2021/12/23 10:00:23;;;;;;;35.03;23.20;;;4.50;92.80;;;;;;5115582;27;20489;-63
2021/12/23 10:02:52;;;;;;;32.23;22.50;;;4.50;92.60;;;;;;5115940;28;20486;-65
2021/12/23 10:05:21;;;;;;;25.40;20.37;;;4.60;92.60;;;;;;5115734;28;20434;-66
2021/12/23 10:07:49;;;;;;;37.33;21.50;;;4.60;92.40;;;;;;5116066;27;20431;-65
2021/12/23 10:10:21;;;;;;;34.20;22.67;;;4.70;92.30;;;;;;5115922;28;20449;-65
2021/12/23 10:32:36;;;;;;;38.20;23.40;;;5.00;90.70;;;;;;5115576;28;20762;-66
2021/12/23 10:38:03;;;;;;;28.40;20.90;;;5.00;90.00;;;;;;5115235;28;20477;-65
2021/12/23 10:40:31;;;;;;;33.20;22.60;;;4.90;89.10;;;;;;5115462;28;20463;-65
2021/12/23 10:42:58;;;;;;;32.30;21.87;;;4.90;89.60;;;;;;5115328;28;20490;-66
2021/12/23 10:45:32;;;;;;;33.87;22.10;;;4.90;89.70;;;;;;5115305;28;20443;-65
2021/12/23 10:48:03;;;;;;;31.83;22.03;;;5.00;90.00;;;;;;5115329;28;20785;-66
2021/12/23 10:50:38;;;;;;;30.73;22.97;;;5.00;90.30;;;;;;5115227;28;20844;-66
2021/12/23 10:53:10;;;;;;;34.33;24.73;;;5.00;90.40;;;;;;5114790;28;20472;-66
2021/12/23 10:58:23;;;;;;;34.20;24.20;;;5.20;90.50;;;;;;5114929;28;20469;-66
2021/12/23 11:00:53;;;;;;;32.80;25.80;;;5.20;90.40;;;;;;5115117;27;20431;-66
2021/12/23 11:03:25;;;;;;;33.87;24.00;;;5.40;90.50;;;;;;5115826;28;20467;-66
2021/12/23 11:06:04;;;;;;;32.00;23.97;;;5.40;90.50;;;;;;5115004;28;20432;-66
2021/12/23 11:08:41;;;;;;;32.90;22.90;;;5.60;90.50;;;;;;5114942;28;20471;-66
2021/12/23 11:11:36;;;;;;;33.23;21.17;;;5.60;90.30;;;;;;5114734;28;20441;-66
2021/12/23 11:37:03;;;;;;;30.53;21.83;;;5.90;88.20;;;;;;5114308;28;20482;-65
2021/12/23 11:39:36;;;;;;;28.23;19.60;;;5.90;88.10;;;;;;5113837;28;20475;-65
2021/12/23 11:42:15;;;;;;;38.20;23.40;;;5.90;88.40;;;;;;5114369;28;20430;-65
2021/12/23 11:44:42;;;;;;;32.70;21.63;;;5.90;87.90;;;;;;5114240;28;20466;-66
2021/12/23 11:47:12;;;;;;;26.20;19.43;;;6.00;88.30;;;;;;5113914;28;20952;-65
2021/12/23 11:49:42;;;;;;;32.03;20.13;;;6.00;88.10;;;;;;5114172;28;20489;-66
2021/12/23 11:52:09;;;;;;;28.50;21.23;;;6.00;87.60;;;;;;5114153;28;20446;-66
2021/12/23 11:54:39;;;;;;;32.67;23.30;;;6.10;87.60;;;;;;5114118;27;20462;-66
2021/12/23 11:57:08;;;;;;;33.17;22.33;;;6.10;87.90;;;;;;5114930;28;20434;-66
2021/12/23 11:59:37;;;;;;;32.17;23.87;;;6.10;88.10;;;;;;5113516;28;20478;-66
2021/12/23 12:02:14;;;;;;;33.37;24.00;;;6.10;88.30;;;;;;5113994;28;20443;-66
2021/12/23 12:04:41;;;;;;;37.47;24.50;;;6.10;88.40;;;;;;5113619;28;20534;-66
2021/12/23 12:07:14;;;;;;;35.80;23.40;;;6.10;88.40;;;;;;5113926;28;20439;-66
2021/12/23 12:09:54;;;;;;;30.47;21.97;;;6.20;88.60;;;;;;5114029;28;20426;-66
2021/12/23 12:12:21;;;;;;;35.57;24.00;;;6.20;88.60;;;;;;5113921;28;20434;-66
2021/12/23 12:14:48;;;;;;;32.67;22.90;;;6.20;88.60;;;;;;5113929;28;20528;-66
2021/12/23 12:17:37;;;;;;;34.10;23.53;;;6.20;88.60;;;;;;5113595;28;20991;-66
2021/12/23 12:20:23;;;;;;;32.20;22.07;;;6.20;88.50;;;;;;5113446;28;20510;-66
2021/12/23 12:22:55;;;;;;;27.90;21.47;;;6.30;88.10;;;;;;5113847;28;20906;-66
2021/12/23 12:25:55;;;;;;;30.43;22.00;;;6.30;87.90;;;;;;5114149;28;20500;-66
2021/12/23 12:28:28;;;;;;;29.07;22.33;;;6.30;88.00;;;;;;5113847;28;20435;-66
2021/12/23 12:30:58;;;;;;;33.73;22.23;;;6.40;88.10;;;;;;5113538;28;20435;-66
2021/12/23 12:33:41;;;;;;;31.93;22.57;;;6.50;88.20;;;;;;5113668;28;20465;-66
2021/12/23 12:36:11;;;;;;;29.10;21.70;;;6.50;87.90;;;;;;5101468;28;20447;-66
2021/12/23 12:38:41;;;;;;;32.83;22.03;;;6.60;87.60;;;;;;5114020;28;20435;-66
2021/12/23 12:41:12;;;;;;;31.20;21.03;;;6.70;87.30;;;;;;5113643;28;20800;-66
2021/12/23 12:43:55;;;;;;;31.60;22.07;;;6.80;87.00;;;;;;5113599;28;20493;-66
2021/12/23 12:46:55;;;;;;;31.73;23.37;;;6.80;86.60;;;;;;5113625;28;20423;-66
2021/12/23 12:49:26;;;;;;;30.30;20.87;;;6.90;86.60;;;;;;5111117;28;20438;-66
2021/12/23 12:51:55;;;;;;;31.03;23.23;;;7.00;86.40;;;;;;5117618;28;20836;-66
2021/12/23 12:54:31;;;;;;;31.37;22.80;;;7.10;86.00;;;;;;5117176;28;20984;-66
2021/12/23 12:57:01;;;;;;;33.87;23.00;;;7.20;85.30;;;;;;5117495;28;20439;-66
2021/12/23 12:59:31;;;;;;;33.20;22.37;;;7.30;84.50;;;;;;5117069;28;20482;-66
2021/12/23 13:02:00;;;;;;;34.27;21.77;;;7.30;82.80;;;;;;5118288;28;20453;-66
2021/12/23 13:04:30;;;;;;;28.10;20.93;;;7.40;82.50;;;;;;5117132;28;20509;-66
2021/12/23 13:06:59;;;;;;;38.57;21.10;;;7.50;82.50;;;;;;5117292;28;20434;-66
2021/12/23 13:09:30;;;;;;;31.20;22.20;;;7.50;82.60;;;;;;5117180;28;20435;-66
2021/12/23 13:12:00;;;;;;;30.27;22.00;;;7.60;82.80;;;;;;5116881;28;20916;-66
2021/12/23 13:14:48;;;;;;;29.10;22.97;;;7.70;82.70;;;;;;5117572;28;20557;-66
2021/12/23 13:17:15;;;;;;;31.37;21.83;;;7.80;82.50;;;;;;5117098;28;20464;-65
2021/12/23 13:19:42;;;;;;;27.47;20.77;;;7.80;82.20;;;;;;5116980;28;20482;-65
2021/12/23 13:22:11;;;;;;;29.53;20.30;;;7.70;81.80;;;;;;5116973;28;20447;-65
2021/12/23 13:24:38;;;;;;;32.17;21.33;;;7.70;80.60;;;;;;5116830;28;20553;-65
2021/12/23 13:27:06;;;;;;;27.17;20.33;;;7.60;79.50;;;;;;5116853;28;20438;-65
2021/12/23 13:29:35;;;;;;;26.33;19.97;;;7.40;80.10;;;;;;5116544;28;20960;-65
2021/12/23 13:32:02;;;;;;;26.37;20.83;;;7.30;80.90;;;;;;5116734;28;20825;-65
2021/12/23 13:34:31;;;;;;;29.70;20.93;;;7.20;81.60;;;;;;5116637;28;20509;-65
2021/12/23 13:37:01;;;;;;;31.07;22.33;;;7.10;82.30;;;;;;5116680;28;20431;-65
2021/12/23 13:39:30;;;;;;;27.07;20.53;;;7.00;81.90;;;;;;5116550;28;20516;-65